logo
Search for airport 
image banner adimage banner adimage banner ad
image banner ad

FMMB - Ambatomainty

Located in Ambahivahy, Madagascar

ICAO - , IATA - AMY

Data provided by Airmate  

General information

Coordinates: S17°41'11" E45°37'30"
Elevation is 1020 feet MSL.
Magnetic variation is -14° East
View others Airports in Mahajanga

Operational data

Special qualification required
Current time UTC:
Current local time:
Weather at : - ( 0 km )
METAR: K40B 171316Z AUTO 00000KT 18/09 A3011 RMK AO1 SLP202 T01770086 58006
View NOTAMs / SUP AIP / TFR affecting this airport [VIEW]
Communications frequencies: [VIEW]

Runways:

RWY identifierQFULength (ft)Width (ft)SurfaceLDA (ft)
0649°2705191GRAS
24229°2705191GRAS

Airport contact information

Address: Ambahivahy Madagascar

Satellite view of FMMB